sensor_id;sensor_type;location;lat;lon;timestamp;P1;durP1;ratioP1;P2;durP2;ratioP2
14613;SDS011;7393;51.446;6.800;2024-03-06T00:01:31;22.50;;;14.07;;
14613;SDS011;7393;51.446;6.800;2024-03-06T00:03:59;18.90;;;13.67;;
14613;SDS011;7393;51.446;6.800;2024-03-06T00:06:27;18.53;;;13.30;;
14613;SDS011;7393;51.446;6.800;2024-03-06T00:08:53;17.93;;;12.67;;
14613;SDS011;7393;51.446;6.800;2024-03-06T00:11:20;19.77;;;13.37;;
14613;SDS011;7393;51.446;6.800;2024-03-06T00:13:47;16.03;;;12.43;;
14613;SDS011;7393;51.446;6.800;2024-03-06T00:16:14;16.00;;;12.63;;
14613;SDS011;7393;51.446;6.800;2024-03-06T00:18:41;18.50;;;13.57;;
14613;SDS011;7393;51.446;6.800;2024-03-06T00:21:08;17.20;;;13.07;;
14613;SDS011;7393;51.446;6.800;2024-03-06T00:23:37;16.20;;;12.87;;
14613;SDS011;7393;51.446;6.800;2024-03-06T00:26:04;17.47;;;12.90;;
14613;SDS011;7393;51.446;6.800;2024-03-06T00:28:30;16.80;;;12.13;;
14613;SDS011;7393;51.446;6.800;2024-03-06T00:30:57;19.17;;;13.13;;
14613;SDS011;7393;51.446;6.800;2024-03-06T00:33:24;18.13;;;12.77;;
14613;SDS011;7393;51.446;6.800;2024-03-06T00:35:51;17.50;;;13.70;;
14613;SDS011;7393;51.446;6.800;2024-03-06T00:38:17;18.23;;;13.33;;
14613;SDS011;7393;51.446;6.800;2024-03-06T00:40:45;19.20;;;14.17;;
14613;SDS011;7393;51.446;6.800;2024-03-06T00:43:12;19.23;;;13.90;;
14613;SDS011;7393;51.446;6.800;2024-03-06T00:45:39;18.80;;;13.73;;
14613;SDS011;7393;51.446;6.800;2024-03-06T00:48:06;18.80;;;14.17;;
14613;SDS011;7393;51.446;6.800;2024-03-06T00:50:33;20.60;;;14.97;;
14613;SDS011;7393;51.446;6.800;2024-03-06T00:53:00;21.60;;;14.97;;
14613;SDS011;7393;51.446;6.800;2024-03-06T00:55:28;21.63;;;15.97;;
14613;SDS011;7393;51.446;6.800;2024-03-06T00:57:56;19.67;;;14.67;;
14613;SDS011;7393;51.446;6.800;2024-03-06T01:00:23;19.57;;;14.47;;
14613;SDS011;7393;51.446;6.800;2024-03-06T01:02:49;21.90;;;14.80;;
14613;SDS011;7393;51.446;6.800;2024-03-06T01:05:16;19.77;;;14.77;;
14613;SDS011;7393;51.446;6.800;2024-03-06T01:07:43;19.63;;;15.00;;
14613;SDS011;7393;51.446;6.800;2024-03-06T01:10:10;19.20;;;13.77;;
14613;SDS011;7393;51.446;6.800;2024-03-06T01:12:37;20.73;;;14.77;;
14613;SDS011;7393;51.446;6.800;2024-03-06T01:15:05;19.27;;;14.37;;
14613;SDS011;7393;51.446;6.800;2024-03-06T01:17:32;20.77;;;14.47;;
14613;SDS011;7393;51.446;6.800;2024-03-06T01:19:59;20.20;;;13.83;;
14613;SDS011;7393;51.446;6.800;2024-03-06T01:22:27;23.20;;;14.23;;
14613;SDS011;7393;51.446;6.800;2024-03-06T01:24:54;18.83;;;14.03;;
14613;SDS011;7393;51.446;6.800;2024-03-06T01:27:21;18.10;;;12.93;;
14613;SDS011;7393;51.446;6.800;2024-03-06T01:29:48;18.73;;;13.43;;
14613;SDS011;7393;51.446;6.800;2024-03-06T01:32:16;19.03;;;14.33;;
14613;SDS011;7393;51.446;6.800;2024-03-06T01:34:43;19.90;;;13.90;;
14613;SDS011;7393;51.446;6.800;2024-03-06T01:37:09;18.43;;;13.00;;
14613;SDS011;7393;51.446;6.800;2024-03-06T01:39:36;18.57;;;13.23;;
14613;SDS011;7393;51.446;6.800;2024-03-06T01:42:03;20.03;;;13.50;;
14613;SDS011;7393;51.446;6.800;2024-03-06T01:44:30;15.77;;;12.80;;
14613;SDS011;7393;51.446;6.800;2024-03-06T01:46:57;18.80;;;13.97;;
14613;SDS011;7393;51.446;6.800;2024-03-06T01:49:25;22.83;;;14.80;;
14613;SDS011;7393;51.446;6.800;2024-03-06T01:51:54;18.73;;;13.90;;
14613;SDS011;7393;51.446;6.800;2024-03-06T01:54:22;20.27;;;14.63;;
14613;SDS011;7393;51.446;6.800;2024-03-06T01:56:50;19.83;;;14.37;;
14613;SDS011;7393;51.446;6.800;2024-03-06T01:59:21;19.03;;;13.90;;
14613;SDS011;7393;51.446;6.800;2024-03-06T02:01:50;15.73;;;12.13;;
14613;SDS011;7393;51.446;6.800;2024-03-06T02:04:20;19.47;;;13.87;;
14613;SDS011;7393;51.446;6.800;2024-03-06T02:06:48;20.97;;;13.97;;
14613;SDS011;7393;51.446;6.800;2024-03-06T02:09:15;21.77;;;15.80;;
14613;SDS011;7393;51.446;6.800;2024-03-06T02:11:41;20.57;;;15.07;;
14613;SDS011;7393;51.446;6.800;2024-03-06T02:14:10;20.97;;;14.30;;
14613;SDS011;7393;51.446;6.800;2024-03-06T02:16:37;21.47;;;14.17;;
14613;SDS011;7393;51.446;6.800;2024-03-06T02:19:05;17.43;;;13.23;;
14613;SDS011;7393;51.446;6.800;2024-03-06T02:21:33;22.10;;;14.93;;
14613;SDS011;7393;51.446;6.800;2024-03-06T02:24:00;20.43;;;14.57;;
14613;SDS011;7393;51.446;6.800;2024-03-06T02:26:27;20.47;;;14.53;;
14613;SDS011;7393;51.446;6.800;2024-03-06T02:28:54;20.77;;;14.20;;
14613;SDS011;7393;51.446;6.800;2024-03-06T02:31:22;19.67;;;14.10;;
14613;SDS011;7393;51.446;6.800;2024-03-06T02:33:49;19.23;;;14.50;;
14613;SDS011;7393;51.446;6.800;2024-03-06T02:36:16;21.00;;;14.93;;
14613;SDS011;7393;51.446;6.800;2024-03-06T02:38:45;21.83;;;14.73;;
14613;SDS011;7393;51.446;6.800;2024-03-06T02:41:12;18.77;;;13.90;;
14613;SDS011;7393;51.446;6.800;2024-03-06T02:43:41;22.07;;;14.03;;
14613;SDS011;7393;51.446;6.800;2024-03-06T02:46:08;18.97;;;13.57;;
14613;SDS011;7393;51.446;6.800;2024-03-06T02:48:34;20.10;;;14.03;;
14613;SDS011;7393;51.446;6.800;2024-03-06T02:51:01;20.23;;;14.07;;
14613;SDS011;7393;51.446;6.800;2024-03-06T02:53:28;19.13;;;13.47;;
14613;SDS011;7393;51.446;6.800;2024-03-06T02:55:56;19.77;;;14.03;;
14613;SDS011;7393;51.446;6.800;2024-03-06T02:58:23;19.60;;;13.33;;
14613;SDS011;7393;51.446;6.800;2024-03-06T03:00:50;20.57;;;14.23;;
14613;SDS011;7393;51.446;6.800;2024-03-06T03:03:16;22.40;;;14.70;;
14613;SDS011;7393;51.446;6.800;2024-03-06T03:05:43;23.93;;;14.40;;
14613;SDS011;7393;51.446;6.800;2024-03-06T03:08:10;23.50;;;14.90;;
14613;SDS011;7393;51.446;6.800;2024-03-06T03:10:37;19.67;;;14.07;;
14613;SDS011;7393;51.446;6.800;2024-03-06T03:13:05;21.23;;;13.73;;
14613;SDS011;7393;51.446;6.800;2024-03-06T03:15:32;21.80;;;14.23;;
14613;SDS011;7393;51.446;6.800;2024-03-06T03:17:59;19.27;;;14.03;;
14613;SDS011;7393;51.446;6.800;2024-03-06T03:20:26;20.97;;;13.50;;
14613;SDS011;7393;51.446;6.800;2024-03-06T03:22:52;18.43;;;13.50;;
14613;SDS011;7393;51.446;6.800;2024-03-06T03:25:19;18.87;;;13.50;;
14613;SDS011;7393;51.446;6.800;2024-03-06T03:27:46;19.93;;;13.90;;
14613;SDS011;7393;51.446;6.800;2024-03-06T03:30:15;19.50;;;14.17;;
14613;SDS011;7393;51.446;6.800;2024-03-06T03:32:41;18.23;;;13.40;;
14613;SDS011;7393;51.446;6.800;2024-03-06T03:35:08;18.50;;;12.73;;
14613;SDS011;7393;51.446;6.800;2024-03-06T03:37:35;19.10;;;13.43;;
14613;SDS011;7393;51.446;6.800;2024-03-06T03:40:02;17.83;;;12.70;;
14613;SDS011;7393;51.446;6.800;2024-03-06T03:42:29;18.70;;;12.73;;
14613;SDS011;7393;51.446;6.800;2024-03-06T03:44:56;16.70;;;11.80;;
14613;SDS011;7393;51.446;6.800;2024-03-06T03:47:24;15.80;;;12.40;;
14613;SDS011;7393;51.446;6.800;2024-03-06T03:49:51;17.17;;;12.03;;
14613;SDS011;7393;51.446;6.800;2024-03-06T03:52:17;16.30;;;12.23;;
14613;SDS011;7393;51.446;6.800;2024-03-06T03:54:44;16.50;;;12.17;;
14613;SDS011;7393;51.446;6.800;2024-03-06T03:57:11;14.50;;;11.00;;
14613;SDS011;7393;51.446;6.800;2024-03-06T03:59:39;15.43;;;11.40;;
14613;SDS011;7393;51.446;6.800;2024-03-06T04:02:06;15.47;;;12.00;;
14613;SDS011;7393;51.446;6.800;2024-03-06T04:04:34;16.37;;;11.33;;
14613;SDS011;7393;51.446;6.800;2024-03-06T04:07:01;17.20;;;12.07;;
14613;SDS011;7393;51.446;6.800;2024-03-06T04:09:28;16.80;;;11.67;;
14613;SDS011;7393;51.446;6.800;2024-03-06T04:11:55;17.53;;;12.07;;
14613;SDS011;7393;51.446;6.800;2024-03-06T04:14:22;17.13;;;12.23;;
14613;SDS011;7393;51.446;6.800;2024-03-06T04:16:49;15.77;;;12.00;;
14613;SDS011;7393;51.446;6.800;2024-03-06T04:19:15;18.37;;;12.87;;
14613;SDS011;7393;51.446;6.800;2024-03-06T04:21:43;18.50;;;13.07;;
14613;SDS011;7393;51.446;6.800;2024-03-06T04:24:10;20.20;;;13.70;;
14613;SDS011;7393;51.446;6.800;2024-03-06T04:26:37;20.20;;;13.47;;
14613;SDS011;7393;51.446;6.800;2024-03-06T04:29:04;20.33;;;13.23;;
14613;SDS011;7393;51.446;6.800;2024-03-06T04:31:31;17.80;;;12.77;;
14613;SDS011;7393;51.446;6.800;2024-03-06T04:33:57;18.93;;;13.67;;
14613;SDS011;7393;51.446;6.800;2024-03-06T04:36:24;19.50;;;13.73;;
14613;SDS011;7393;51.446;6.800;2024-03-06T04:38:52;20.57;;;13.90;;
14613;SDS011;7393;51.446;6.800;2024-03-06T04:41:19;18.03;;;13.53;;
14613;SDS011;7393;51.446;6.800;2024-03-06T04:43:46;21.57;;;14.70;;
14613;SDS011;7393;51.446;6.800;2024-03-06T04:46:13;19.47;;;13.23;;
14613;SDS011;7393;51.446;6.800;2024-03-06T04:48:40;18.77;;;12.77;;
14613;SDS011;7393;51.446;6.800;2024-03-06T04:51:06;19.97;;;14.10;;
14613;SDS011;7393;51.446;6.800;2024-03-06T04:53:35;20.87;;;13.87;;
14613;SDS011;7393;51.446;6.800;2024-03-06T04:56:03;18.53;;;13.07;;
14613;SDS011;7393;51.446;6.800;2024-03-06T04:58:30;21.10;;;14.33;;
14613;SDS011;7393;51.446;6.800;2024-03-06T05:00:56;21.13;;;14.87;;
14613;SDS011;7393;51.446;6.800;2024-03-06T05:03:23;20.37;;;14.80;;
14613;SDS011;7393;51.446;6.800;2024-03-06T05:05:51;20.90;;;14.17;;
14613;SDS011;7393;51.446;6.800;2024-03-06T05:08:17;22.30;;;13.70;;
14613;SDS011;7393;51.446;6.800;2024-03-06T05:10:45;20.90;;;14.90;;
14613;SDS011;7393;51.446;6.800;2024-03-06T05:13:13;20.30;;;13.60;;
14613;SDS011;7393;51.446;6.800;2024-03-06T05:15:40;17.43;;;12.80;;
14613;SDS011;7393;51.446;6.800;2024-03-06T05:18:07;18.93;;;12.20;;
14613;SDS011;7393;51.446;6.800;2024-03-06T05:20:34;20.43;;;13.00;;
14613;SDS011;7393;51.446;6.800;2024-03-06T05:23:01;17.50;;;12.17;;
14613;SDS011;7393;51.446;6.800;2024-03-06T05:25:28;18.73;;;12.73;;
14613;SDS011;7393;51.446;6.800;2024-03-06T05:27:54;16.67;;;12.57;;
14613;SDS011;7393;51.446;6.800;2024-03-06T05:30:25;17.67;;;12.40;;
14613;SDS011;7393;51.446;6.800;2024-03-06T05:32:53;18.77;;;12.73;;
14613;SDS011;7393;51.446;6.800;2024-03-06T05:35:20;18.63;;;12.40;;
14613;SDS011;7393;51.446;6.800;2024-03-06T05:37:47;18.20;;;12.40;;
14613;SDS011;7393;51.446;6.800;2024-03-06T05:40:14;17.03;;;11.60;;
14613;SDS011;7393;51.446;6.800;2024-03-06T05:42:41;18.10;;;11.90;;
14613;SDS011;7393;51.446;6.800;2024-03-06T05:45:08;16.70;;;12.10;;
14613;SDS011;7393;51.446;6.800;2024-03-06T05:47:38;16.33;;;12.40;;
14613;SDS011;7393;51.446;6.800;2024-03-06T05:50:06;18.40;;;12.50;;
14613;SDS011;7393;51.446;6.800;2024-03-06T05:52:35;20.57;;;13.53;;
14613;SDS011;7393;51.446;6.800;2024-03-06T05:55:03;18.03;;;12.63;;
14613;SDS011;7393;51.446;6.800;2024-03-06T05:57:31;18.87;;;12.40;;
14613;SDS011;7393;51.446;6.800;2024-03-06T05:59:57;18.57;;;12.33;;
14613;SDS011;7393;51.446;6.800;2024-03-06T06:02:24;20.87;;;13.83;;
14613;SDS011;7393;51.446;6.800;2024-03-06T06:04:53;18.60;;;13.50;;
14613;SDS011;7393;51.446;6.800;2024-03-06T06:07:20;18.53;;;12.53;;
14613;SDS011;7393;51.446;6.800;2024-03-06T06:09:47;17.53;;;12.27;;
14613;SDS011;7393;51.446;6.800;2024-03-06T06:12:14;18.97;;;13.77;;
14613;SDS011;7393;51.446;6.800;2024-03-06T06:14:40;20.80;;;13.83;;
14613;SDS011;7393;51.446;6.800;2024-03-06T06:17:07;20.03;;;13.80;;
14613;SDS011;7393;51.446;6.800;2024-03-06T06:19:34;20.33;;;14.60;;
14613;SDS011;7393;51.446;6.800;2024-03-06T06:22:02;20.27;;;13.47;;
14613;SDS011;7393;51.446;6.800;2024-03-06T06:24:28;20.87;;;14.47;;
14613;SDS011;7393;51.446;6.800;2024-03-06T06:26:55;21.53;;;14.80;;
14613;SDS011;7393;51.446;6.800;2024-03-06T06:29:22;20.33;;;13.97;;
14613;SDS011;7393;51.446;6.800;2024-03-06T06:31:49;19.57;;;13.13;;
14613;SDS011;7393;51.446;6.800;2024-03-06T06:34:16;21.40;;;14.13;;
14613;SDS011;7393;51.446;6.800;2024-03-06T06:36:44;19.03;;;13.67;;
14613;SDS011;7393;51.446;6.800;2024-03-06T06:39:13;18.57;;;13.27;;
14613;SDS011;7393;51.446;6.800;2024-03-06T06:41:41;21.40;;;13.47;;
14613;SDS011;7393;51.446;6.800;2024-03-06T06:44:08;17.47;;;13.03;;
14613;SDS011;7393;51.446;6.800;2024-03-06T06:46:35;21.10;;;13.60;;
14613;SDS011;7393;51.446;6.800;2024-03-06T06:49:02;22.30;;;14.13;;
14613;SDS011;7393;51.446;6.800;2024-03-06T06:51:29;23.30;;;14.50;;
14613;SDS011;7393;51.446;6.800;2024-03-06T06:53:56;23.40;;;15.90;;
14613;SDS011;7393;51.446;6.800;2024-03-06T06:56:24;20.63;;;14.27;;
14613;SDS011;7393;51.446;6.800;2024-03-06T06:58:51;29.27;;;16.27;;
14613;SDS011;7393;51.446;6.800;2024-03-06T07:01:17;29.80;;;17.73;;
14613;SDS011;7393;51.446;6.800;2024-03-06T07:03:45;28.03;;;17.03;;
14613;SDS011;7393;51.446;6.800;2024-03-06T07:06:12;24.20;;;16.87;;
14613;SDS011;7393;51.446;6.800;2024-03-06T07:08:38;25.57;;;16.53;;
14613;SDS011;7393;51.446;6.800;2024-03-06T07:11:06;22.57;;;14.93;;
14613;SDS011;7393;51.446;6.800;2024-03-06T07:13:34;23.57;;;15.00;;
14613;SDS011;7393;51.446;6.800;2024-03-06T07:16:02;21.10;;;14.77;;
14613;SDS011;7393;51.446;6.800;2024-03-06T07:18:29;24.77;;;16.27;;
14613;SDS011;7393;51.446;6.800;2024-03-06T07:20:56;28.13;;;17.33;;
14613;SDS011;7393;51.446;6.800;2024-03-06T07:23:22;29.33;;;17.57;;
14613;SDS011;7393;51.446;6.800;2024-03-06T07:25:49;28.00;;;17.37;;
14613;SDS011;7393;51.446;6.800;2024-03-06T07:28:16;36.67;;;21.20;;
14613;SDS011;7393;51.446;6.800;2024-03-06T07:30:45;34.80;;;20.57;;
14613;SDS011;7393;51.446;6.800;2024-03-06T07:33:12;32.17;;;19.60;;
14613;SDS011;7393;51.446;6.800;2024-03-06T07:35:39;28.80;;;19.17;;
14613;SDS011;7393;51.446;6.800;2024-03-06T07:38:06;28.60;;;18.50;;
14613;SDS011;7393;51.446;6.800;2024-03-06T07:40:32;26.87;;;17.80;;
14613;SDS011;7393;51.446;6.800;2024-03-06T07:42:59;27.50;;;18.33;;
14613;SDS011;7393;51.446;6.800;2024-03-06T07:45:26;29.20;;;18.23;;
14613;SDS011;7393;51.446;6.800;2024-03-06T07:47:54;34.20;;;20.60;;
14613;SDS011;7393;51.446;6.800;2024-03-06T07:50:21;43.87;;;24.87;;
14613;SDS011;7393;51.446;6.800;2024-03-06T07:52:48;40.67;;;23.30;;
14613;SDS011;7393;51.446;6.800;2024-03-06T07:55:14;42.67;;;23.50;;
14613;SDS011;7393;51.446;6.800;2024-03-06T07:57:43;65.20;;;33.67;;
14613;SDS011;7393;51.446;6.800;2024-03-06T08:00:10;55.47;;;31.63;;
14613;SDS011;7393;51.446;6.800;2024-03-06T08:02:40;56.07;;;30.40;;
14613;SDS011;7393;51.446;6.800;2024-03-06T08:05:10;59.37;;;32.50;;
14613;SDS011;7393;51.446;6.800;2024-03-06T08:07:38;64.93;;;34.20;;
14613;SDS011;7393;51.446;6.800;2024-03-06T08:10:07;63.97;;;33.63;;
14613;SDS011;7393;51.446;6.800;2024-03-06T08:12:38;62.47;;;34.63;;
14613;SDS011;7393;51.446;6.800;2024-03-06T08:15:05;66.27;;;34.50;;
14613;SDS011;7393;51.446;6.800;2024-03-06T08:17:34;68.13;;;35.13;;
14613;SDS011;7393;51.446;6.800;2024-03-06T08:20:01;65.03;;;35.50;;
14613;SDS011;7393;51.446;6.800;2024-03-06T08:22:29;67.50;;;35.23;;
14613;SDS011;7393;51.446;6.800;2024-03-06T08:24:56;71.00;;;35.57;;
14613;SDS011;7393;51.446;6.800;2024-03-06T08:27:23;62.90;;;34.80;;
14613;SDS011;7393;51.446;6.800;2024-03-06T08:29:49;68.43;;;35.80;;
14613;SDS011;7393;51.446;6.800;2024-03-06T08:32:16;69.43;;;37.53;;
14613;SDS011;7393;51.446;6.800;2024-03-06T08:34:43;69.00;;;37.37;;
14613;SDS011;7393;51.446;6.800;2024-03-06T08:37:10;62.73;;;34.57;;
14613;SDS011;7393;51.446;6.800;2024-03-06T08:39:39;61.57;;;33.30;;
14613;SDS011;7393;51.446;6.800;2024-03-06T08:42:06;62.43;;;34.73;;
14613;SDS011;7393;51.446;6.800;2024-03-06T08:44:33;63.03;;;33.60;;
14613;SDS011;7393;51.446;6.800;2024-03-06T08:47:00;60.50;;;33.37;;
14613;SDS011;7393;51.446;6.800;2024-03-06T08:49:27;67.03;;;34.13;;
14613;SDS011;7393;51.446;6.800;2024-03-06T08:51:54;60.57;;;33.57;;
14613;SDS011;7393;51.446;6.800;2024-03-06T08:54:22;60.13;;;32.23;;
14613;SDS011;7393;51.446;6.800;2024-03-06T08:56:50;57.93;;;31.90;;
14613;SDS011;7393;51.446;6.800;2024-03-06T08:59:18;54.37;;;31.13;;
14613;SDS011;7393;51.446;6.800;2024-03-06T09:01:45;57.23;;;31.33;;
14613;SDS011;7393;51.446;6.800;2024-03-06T09:04:12;56.73;;;32.80;;
14613;SDS011;7393;51.446;6.800;2024-03-06T09:06:39;59.13;;;30.57;;
14613;SDS011;7393;51.446;6.800;2024-03-06T09:09:06;55.23;;;32.30;;
14613;SDS011;7393;51.446;6.800;2024-03-06T09:11:34;52.53;;;31.37;;
14613;SDS011;7393;51.446;6.800;2024-03-06T09:14:02;59.63;;;32.57;;
14613;SDS011;7393;51.446;6.800;2024-03-06T09:16:29;51.20;;;30.83;;
14613;SDS011;7393;51.446;6.800;2024-03-06T09:18:56;58.40;;;31.53;;
14613;SDS011;7393;51.446;6.800;2024-03-06T09:21:23;55.63;;;30.30;;
14613;SDS011;7393;51.446;6.800;2024-03-06T09:23:50;50.37;;;30.03;;
14613;SDS011;7393;51.446;6.800;2024-03-06T09:26:17;48.50;;;28.53;;
14613;SDS011;7393;51.446;6.800;2024-03-06T09:28:45;51.00;;;30.43;;
14613;SDS011;7393;51.446;6.800;2024-03-06T09:31:14;53.70;;;30.30;;
14613;SDS011;7393;51.446;6.800;2024-03-06T09:33:41;50.03;;;28.87;;
14613;SDS011;7393;51.446;6.800;2024-03-06T09:36:10;50.37;;;30.47;;
14613;SDS011;7393;51.446;6.800;2024-03-06T09:38:38;54.77;;;31.43;;
14613;SDS011;7393;51.446;6.800;2024-03-06T09:41:06;60.20;;;31.30;;
14613;SDS011;7393;51.446;6.800;2024-03-06T09:43:34;56.37;;;30.93;;
14613;SDS011;7393;51.446;6.800;2024-03-06T09:46:01;49.23;;;29.37;;
14613;SDS011;7393;51.446;6.800;2024-03-06T09:48:30;47.10;;;28.97;;
14613;SDS011;7393;51.446;6.800;2024-03-06T09:51:00;51.37;;;30.90;;
14613;SDS011;7393;51.446;6.800;2024-03-06T09:53:28;49.03;;;30.00;;
14613;SDS011;7393;51.446;6.800;2024-03-06T09:55:55;50.23;;;29.27;;
14613;SDS011;7393;51.446;6.800;2024-03-06T09:58:24;51.57;;;30.73;;
14613;SDS011;7393;51.446;6.800;2024-03-06T10:00:51;52.23;;;30.33;;
14613;SDS011;7393;51.446;6.800;2024-03-06T10:03:19;49.97;;;29.80;;
14613;SDS011;7393;51.446;6.800;2024-03-06T10:05:47;57.77;;;33.23;;
14613;SDS011;7393;51.446;6.800;2024-03-06T10:08:14;54.50;;;30.50;;
14613;SDS011;7393;51.446;6.800;2024-03-06T10:10:42;48.60;;;29.53;;
14613;SDS011;7393;51.446;6.800;2024-03-06T10:13:11;46.07;;;29.53;;
14613;SDS011;7393;51.446;6.800;2024-03-06T10:15:37;48.07;;;28.80;;
14613;SDS011;7393;51.446;6.800;2024-03-06T10:18:11;46.87;;;29.13;;
14613;SDS011;7393;51.446;6.800;2024-03-06T10:20:43;50.87;;;30.00;;
14613;SDS011;7393;51.446;6.800;2024-03-06T10:23:11;49.10;;;28.83;;
14613;SDS011;7393;51.446;6.800;2024-03-06T10:25:38;43.07;;;28.80;;
14613;SDS011;7393;51.446;6.800;2024-03-06T10:28:05;48.93;;;30.60;;
14613;SDS011;7393;51.446;6.800;2024-03-06T10:30:33;51.30;;;30.17;;
14613;SDS011;7393;51.446;6.800;2024-03-06T10:33:01;48.60;;;31.93;;
14613;SDS011;7393;51.446;6.800;2024-03-06T10:35:29;45.63;;;29.27;;
14613;SDS011;7393;51.446;6.800;2024-03-06T10:37:55;45.40;;;29.63;;
14613;SDS011;7393;51.446;6.800;2024-03-06T10:40:24;48.33;;;30.97;;
14613;SDS011;7393;51.446;6.800;2024-03-06T10:42:54;49.83;;;31.17;;
14613;SDS011;7393;51.446;6.800;2024-03-06T10:45:21;49.93;;;30.83;;
14613;SDS011;7393;51.446;6.800;2024-03-06T10:47:56;49.63;;;32.10;;
14613;SDS011;7393;51.446;6.800;2024-03-06T10:50:23;43.57;;;29.10;;
14613;SDS011;7393;51.446;6.800;2024-03-06T10:52:52;45.83;;;30.97;;
14613;SDS011;7393;51.446;6.800;2024-03-06T10:55:20;46.37;;;31.60;;
14613;SDS011;7393;51.446;6.800;2024-03-06T10:57:48;49.27;;;31.73;;
14613;SDS011;7393;51.446;6.800;2024-03-06T11:00:18;50.17;;;32.30;;
14613;SDS011;7393;51.446;6.800;2024-03-06T11:02:46;47.47;;;31.07;;
14613;SDS011;7393;51.446;6.800;2024-03-06T11:05:14;47.70;;;30.53;;
14613;SDS011;7393;51.446;6.800;2024-03-06T11:07:41;49.57;;;31.27;;
14613;SDS011;7393;51.446;6.800;2024-03-06T11:10:09;45.67;;;30.57;;
14613;SDS011;7393;51.446;6.800;2024-03-06T11:12:41;48.87;;;32.13;;
14613;SDS011;7393;51.446;6.800;2024-03-06T11:15:12;49.03;;;31.40;;
14613;SDS011;7393;51.446;6.800;2024-03-06T11:17:41;52.27;;;32.13;;
14613;SDS011;7393;51.446;6.800;2024-03-06T11:20:12;48.63;;;31.47;;
14613;SDS011;7393;51.446;6.800;2024-03-06T11:28:24;42.73;;;29.77;;
14613;SDS011;7393;51.446;6.800;2024-03-06T11:30:56;43.67;;;30.53;;
14613;SDS011;7393;51.446;6.800;2024-03-06T11:33:27;47.30;;;29.73;;
14613;SDS011;7393;51.446;6.800;2024-03-06T11:36:14;45.83;;;29.80;;
14613;SDS011;7393;51.446;6.800;2024-03-06T11:38:51;46.97;;;29.80;;
14613;SDS011;7393;51.446;6.800;2024-03-06T11:41:19;42.50;;;27.77;;
14613;SDS011;7393;51.446;6.800;2024-03-06T11:43:48;41.67;;;28.33;;
14613;SDS011;7393;51.446;6.800;2024-03-06T11:46:19;44.27;;;27.97;;
14613;SDS011;7393;51.446;6.800;2024-03-06T11:48:53;43.17;;;28.40;;
14613;SDS011;7393;51.446;6.800;2024-03-06T11:51:21;40.53;;;26.73;;
14613;SDS011;7393;51.446;6.800;2024-03-06T11:53:50;44.17;;;27.30;;
14613;SDS011;7393;51.446;6.800;2024-03-06T11:56:19;41.60;;;27.43;;
14613;SDS011;7393;51.446;6.800;2024-03-06T11:58:46;38.67;;;25.30;;
14613;SDS011;7393;51.446;6.800;2024-03-06T12:01:13;41.73;;;27.00;;
14613;SDS011;7393;51.446;6.800;2024-03-06T12:03:42;38.53;;;27.80;;
14613;SDS011;7393;51.446;6.800;2024-03-06T12:06:09;36.23;;;24.70;;
14613;SDS011;7393;51.446;6.800;2024-03-06T12:08:38;34.87;;;24.47;;
14613;SDS011;7393;51.446;6.800;2024-03-06T12:11:05;31.67;;;23.43;;
14613;SDS011;7393;51.446;6.800;2024-03-06T12:13:32;35.53;;;23.50;;
14613;SDS011;7393;51.446;6.800;2024-03-06T12:16:03;34.70;;;23.57;;
14613;SDS011;7393;51.446;6.800;2024-03-06T12:18:31;29.57;;;20.20;;
14613;SDS011;7393;51.446;6.800;2024-03-06T12:21:01;33.47;;;21.63;;
14613;SDS011;7393;51.446;6.800;2024-03-06T12:23:29;28.87;;;20.30;;
14613;SDS011;7393;51.446;6.800;2024-03-06T12:26:04;25.07;;;17.83;;
14613;SDS011;7393;51.446;6.800;2024-03-06T12:28:34;19.87;;;13.97;;
14613;SDS011;7393;51.446;6.800;2024-03-06T12:31:02;17.30;;;13.60;;
14613;SDS011;7393;51.446;6.800;2024-03-06T12:33:29;17.17;;;12.80;;
14613;SDS011;7393;51.446;6.800;2024-03-06T12:36:04;18.57;;;12.87;;
14613;SDS011;7393;51.446;6.800;2024-03-06T12:38:35;15.63;;;11.17;;
14613;SDS011;7393;51.446;6.800;2024-03-06T12:41:02;24.00;;;16.83;;
14613;SDS011;7393;51.446;6.800;2024-03-06T12:43:31;25.63;;;18.50;;
14613;SDS011;7393;51.446;6.800;2024-03-06T12:45:59;22.37;;;15.93;;
14613;SDS011;7393;51.446;6.800;2024-03-06T12:48:27;18.83;;;13.87;;
14613;SDS011;7393;51.446;6.800;2024-03-06T12:50:55;15.20;;;11.83;;
14613;SDS011;7393;51.446;6.800;2024-03-06T12:53:31;14.30;;;10.73;;
14613;SDS011;7393;51.446;6.800;2024-03-06T12:55:58;11.87;;;9.43;;
14613;SDS011;7393;51.446;6.800;2024-03-06T12:58:24;12.87;;;9.53;;
14613;SDS011;7393;51.446;6.800;2024-03-06T13:00:51;14.33;;;10.30;;
14613;SDS011;7393;51.446;6.800;2024-03-06T13:03:19;14.47;;;9.43;;
14613;SDS011;7393;51.446;6.800;2024-03-06T13:05:46;15.03;;;10.87;;
14613;SDS011;7393;51.446;6.800;2024-03-06T13:08:13;16.53;;;12.00;;
14613;SDS011;7393;51.446;6.800;2024-03-06T13:10:41;20.03;;;14.40;;
14613;SDS011;7393;51.446;6.800;2024-03-06T13:13:10;21.87;;;13.23;;
14613;SDS011;7393;51.446;6.800;2024-03-06T13:15:36;17.30;;;12.60;;
14613;SDS011;7393;51.446;6.800;2024-03-06T13:18:03;19.90;;;13.70;;
14613;SDS011;7393;51.446;6.800;2024-03-06T13:20:31;18.37;;;12.77;;
14613;SDS011;7393;51.446;6.800;2024-03-06T13:22:58;16.23;;;12.53;;
14613;SDS011;7393;51.446;6.800;2024-03-06T13:25:25;18.73;;;12.93;;
14613;SDS011;7393;51.446;6.800;2024-03-06T13:27:53;18.37;;;12.97;;
14613;SDS011;7393;51.446;6.800;2024-03-06T13:30:20;17.03;;;12.33;;
14613;SDS011;7393;51.446;6.800;2024-03-06T13:32:46;16.60;;;12.63;;
14613;SDS011;7393;51.446;6.800;2024-03-06T13:35:13;18.33;;;14.17;;
14613;SDS011;7393;51.446;6.800;2024-03-06T13:37:41;17.43;;;13.30;;
14613;SDS011;7393;51.446;6.800;2024-03-06T13:40:09;16.33;;;12.33;;
14613;SDS011;7393;51.446;6.800;2024-03-06T13:42:38;16.87;;;11.70;;
14613;SDS011;7393;51.446;6.800;2024-03-06T13:45:07;15.10;;;11.40;;
14613;SDS011;7393;51.446;6.800;2024-03-06T13:47:36;14.50;;;10.73;;
14613;SDS011;7393;51.446;6.800;2024-03-06T13:50:05;13.00;;;10.37;;
14613;SDS011;7393;51.446;6.800;2024-03-06T13:52:33;15.13;;;10.60;;
14613;SDS011;7393;51.446;6.800;2024-03-06T13:55:00;13.33;;;10.50;;
14613;SDS011;7393;51.446;6.800;2024-03-06T13:57:29;12.27;;;9.77;;
14613;SDS011;7393;51.446;6.800;2024-03-06T13:59:58;11.73;;;9.50;;
14613;SDS011;7393;51.446;6.800;2024-03-06T14:02:26;12.63;;;10.07;;
14613;SDS011;7393;51.446;6.800;2024-03-06T14:04:53;13.33;;;9.40;;
14613;SDS011;7393;51.446;6.800;2024-03-06T14:07:20;11.00;;;8.83;;
14613;SDS011;7393;51.446;6.800;2024-03-06T14:09:48;11.83;;;9.30;;
14613;SDS011;7393;51.446;6.800;2024-03-06T14:12:15;12.10;;;9.13;;
14613;SDS011;7393;51.446;6.800;2024-03-06T14:14:42;11.23;;;8.87;;
14613;SDS011;7393;51.446;6.800;2024-03-06T14:17:10;11.83;;;9.23;;
14613;SDS011;7393;51.446;6.800;2024-03-06T14:19:38;11.47;;;9.57;;
14613;SDS011;7393;51.446;6.800;2024-03-06T14:22:06;10.97;;;8.33;;
14613;SDS011;7393;51.446;6.800;2024-03-06T14:24:33;10.30;;;8.03;;
14613;SDS011;7393;51.446;6.800;2024-03-06T14:27:00;11.47;;;8.40;;
14613;SDS011;7393;51.446;6.800;2024-03-06T14:29:27;10.90;;;8.07;;
14613;SDS011;7393;51.446;6.800;2024-03-06T14:31:54;12.80;;;8.13;;
14613;SDS011;7393;51.446;6.800;2024-03-06T14:34:21;10.37;;;8.27;;
14613;SDS011;7393;51.446;6.800;2024-03-06T14:36:50;10.77;;;8.90;;
14613;SDS011;7393;51.446;6.800;2024-03-06T14:39:17;10.30;;;8.47;;
14613;SDS011;7393;51.446;6.800;2024-03-06T14:41:46;12.00;;;8.53;;
14613;SDS011;7393;51.446;6.800;2024-03-06T14:44:13;10.50;;;7.33;;